Frog Pond, North Carolina
Current Conditions -  °F | °C
As of 12:55 PM on Monday 24 Nov 2014 (Local Time) from KVUJ Reporting Station
Scattered Clouds Scattered Clouds  
Wind Chill: 72°   Ceiling: Unl
Heat Index: 72°   Visibility: 10mi
Dew Point: 61°   Wind: 14mph
Humidity: 69%   Direction: 210°SSW
Pressure: 29.82"   Gusts: 24mph
Location:  35.237°N, 80.3328°W
Report Text: KVUJ 241755Z AUTO 21012G21KT 10SM SCT027 SCT032 SCT090 22/16 A2982 RMK AO2 T02200160 10221 20147
Loading
Personal Weather Stations






























Interactive Weather Map New forecast layout! Learn more

10-Day Weather Forecast

Advertisements
Track Severe Weather on mobile